createdAt,value
2023-01-15T00:01:15.579Z,1008.88
2023-01-15T00:06:22.709Z,1008.40
2023-01-15T00:11:29.920Z,1008.39
2023-01-15T00:16:37.159Z,1008.45
2023-01-15T00:21:44.316Z,1008.22
2023-01-15T00:26:51.516Z,1008.17
2023-01-15T00:31:58.756Z,1007.94
2023-01-15T00:37:06.012Z,1007.95
2023-01-15T00:42:13.952Z,1008.03
2023-01-15T00:47:21.169Z,1007.70
2023-01-15T00:52:28.388Z,1007.62
2023-01-15T00:57:35.618Z,1007.60
2023-01-15T01:02:42.834Z,1007.47
2023-01-15T01:07:49.980Z,1007.56
2023-01-15T01:12:57.123Z,1007.59
2023-01-15T01:18:04.342Z,1007.61
2023-01-15T01:23:11.554Z,1007.67
2023-01-15T01:28:18.805Z,1007.63
2023-01-15T01:33:26.042Z,1007.57
2023-01-15T01:38:33.228Z,1007.57
2023-01-15T01:43:40.435Z,1007.44
2023-01-15T01:48:47.688Z,1007.66
2023-01-15T01:53:54.914Z,1007.64
2023-01-15T01:59:02.136Z,1007.44
2023-01-15T02:04:09.327Z,1007.50
2023-01-15T02:09:16.541Z,1007.38
2023-01-15T02:14:23.746Z,1007.51
2023-01-15T02:19:30.941Z,1007.28
2023-01-15T02:24:38.154Z,1007.14
2023-01-15T02:29:45.362Z,1007.22
2023-01-15T02:34:52.571Z,1007.22
2023-01-15T02:39:59.784Z,1007.28
2023-01-15T02:45:07.033Z,1007.10
2023-01-15T02:50:14.178Z,1007.14
2023-01-15T02:55:21.344Z,1006.99
2023-01-15T03:00:28.497Z,1006.87
2023-01-15T03:05:35.692Z,1006.64
2023-01-15T03:10:42.886Z,1006.65
2023-01-15T03:15:50.088Z,1006.44
2023-01-15T03:20:58.877Z,1006.26
2023-01-15T03:26:04.543Z,1006.20
2023-01-15T03:31:11.815Z,1006.28
2023-01-15T03:36:19.001Z,1006.19
2023-01-15T03:41:26.248Z,1006.03
2023-01-15T03:46:33.479Z,1006.08
2023-01-15T03:51:40.645Z,1006.09
2023-01-15T03:56:47.858Z,1006.06
2023-01-15T04:01:55.151Z,1006.04
2023-01-15T04:07:02.286Z,1005.95
2023-01-15T04:12:09.534Z,1005.97
2023-01-15T04:17:16.904Z,1006.07
2023-01-15T04:22:24.054Z,1006.17
2023-01-15T04:27:31.261Z,1006.24
2023-01-15T04:32:38.422Z,1006.34
2023-01-15T04:37:45.574Z,1006.33
2023-01-15T04:42:52.766Z,1006.45
2023-01-15T04:47:59.994Z,1006.29
2023-01-15T04:53:07.176Z,1006.24
2023-01-15T04:58:14.375Z,1006.39
2023-01-15T05:03:21.609Z,1006.35
2023-01-15T05:08:28.811Z,1006.51
2023-01-15T05:13:35.999Z,1006.59
2023-01-15T05:18:43.240Z,1006.46
2023-01-15T05:23:50.430Z,1006.43
2023-01-15T05:28:57.561Z,1006.53
2023-01-15T05:34:04.724Z,1006.47
2023-01-15T05:39:11.929Z,1006.37
2023-01-15T05:44:19.133Z,1006.46
2023-01-15T05:49:26.354Z,1006.46
2023-01-15T05:54:33.614Z,1006.43
2023-01-15T05:59:40.885Z,1006.58
2023-01-15T06:04:48.071Z,1006.55
2023-01-15T06:09:55.254Z,1006.46
2023-01-15T06:15:02.496Z,1006.48
2023-01-15T06:20:09.675Z,1006.58
2023-01-15T06:25:16.822Z,1006.49
2023-01-15T06:30:23.978Z,1006.49
2023-01-15T06:35:31.170Z,1006.45
2023-01-15T06:40:38.376Z,1006.54
2023-01-15T06:45:45.597Z,1006.42
2023-01-15T06:50:52.781Z,1006.25
2023-01-15T06:55:59.990Z,1006.32
2023-01-15T07:01:07.313Z,1006.27
2023-01-15T07:06:14.370Z,1006.13
2023-01-15T07:11:21.637Z,1006.37
2023-01-15T07:16:28.913Z,1006.28
2023-01-15T07:21:36.003Z,1006.18
2023-01-15T07:26:43.222Z,1006.13
2023-01-15T07:31:50.453Z,1006.03
2023-01-15T07:36:57.679Z,1005.87
2023-01-15T07:42:04.894Z,1005.68
2023-01-15T07:47:12.073Z,1005.68
2023-01-15T07:52:19.277Z,1005.56
2023-01-15T07:57:26.464Z,1005.58
2023-01-15T08:02:33.658Z,1005.60
2023-01-15T08:07:40.890Z,1005.62
2023-01-15T08:12:48.073Z,1005.65
2023-01-15T08:17:55.282Z,1005.48
2023-01-15T08:23:02.421Z,1005.52
2023-01-15T08:28:09.572Z,1005.49
2023-01-15T08:33:16.757Z,1005.68
2023-01-15T08:38:23.993Z,1005.57
2023-01-15T08:43:31.192Z,1005.40
2023-01-15T08:48:38.422Z,1005.46
2023-01-15T08:53:45.607Z,1005.51
2023-01-15T08:58:52.796Z,1005.42
2023-01-15T09:04:00.016Z,1005.39
2023-01-15T09:09:07.165Z,1005.53
2023-01-15T09:14:59.253Z,1005.54
2023-01-15T09:19:21.626Z,1005.62
2023-01-15T09:24:28.871Z,1005.79
2023-01-15T09:29:35.998Z,1005.81
2023-01-15T09:34:43.235Z,1005.81
2023-01-15T09:39:50.433Z,1005.98
2023-01-15T09:44:57.706Z,1005.99
2023-01-15T09:50:04.953Z,1006.27
2023-01-15T09:55:12.137Z,1007.02
2023-01-15T10:00:19.387Z,1007.32
2023-01-15T10:05:26.608Z,1007.51
2023-01-15T10:10:33.801Z,1007.73
2023-01-15T10:15:41.054Z,1007.99
2023-01-15T10:20:48.204Z,1008.13
2023-01-15T10:25:55.368Z,1008.31
2023-01-15T10:31:02.621Z,1008.49
2023-01-15T10:36:09.795Z,1008.73
2023-01-15T10:41:17.046Z,1008.98
2023-01-15T10:46:24.343Z,1009.02
2023-01-15T10:51:31.531Z,1009.18
2023-01-15T10:56:38.748Z,1009.28
2023-01-15T11:01:46.097Z,1009.55
2023-01-15T11:06:53.175Z,1009.60
2023-01-15T11:12:00.376Z,1009.60
2023-01-15T11:17:07.586Z,1009.81
2023-01-15T11:22:14.858Z,1009.95
2023-01-15T11:27:22.048Z,1010.32
2023-01-15T11:32:29.251Z,1010.80
2023-01-15T11:37:36.423Z,1011.01
2023-01-15T11:42:43.667Z,1011.24
2023-01-15T11:47:51.097Z,1011.44
2023-01-15T11:52:58.290Z,1011.46
2023-01-15T11:58:05.480Z,1011.57
2023-01-15T12:03:12.678Z,1011.61
2023-01-15T12:08:19.904Z,1011.70
2023-01-15T12:13:27.141Z,1011.74
2023-01-15T12:18:34.299Z,1012.01
2023-01-15T12:23:41.498Z,1012.06
2023-01-15T12:28:48.706Z,1012.15
2023-01-15T12:33:55.925Z,1012.38
2023-01-15T12:39:03.162Z,1012.43
2023-01-15T12:44:10.429Z,1012.69
2023-01-15T12:49:17.652Z,1012.73
2023-01-15T12:54:24.837Z,1012.63
2023-01-15T12:59:32.076Z,1012.83
2023-01-15T13:04:39.368Z,1012.86
2023-01-15T13:09:46.570Z,1012.89
2023-01-15T13:14:53.809Z,1012.88
2023-01-15T13:20:01.066Z,1013.16
2023-01-15T13:25:08.369Z,1013.01
2023-01-15T13:30:15.972Z,1013.49
2023-01-15T13:35:23.192Z,1013.26
2023-01-15T13:40:30.440Z,1013.24
2023-01-15T13:45:37.816Z,1013.29
2023-01-15T13:50:44.922Z,1013.35
2023-01-15T13:55:52.150Z,1013.45
2023-01-15T14:00:59.444Z,1013.51
2023-01-15T14:06:06.519Z,1013.49
2023-01-15T14:11:13.703Z,1013.44
2023-01-15T14:16:21.001Z,1013.55
2023-01-15T14:21:28.214Z,1013.42
2023-01-15T14:26:35.374Z,1013.39
2023-01-15T14:31:42.864Z,1013.47
2023-01-15T14:36:50.054Z,1013.52
2023-01-15T14:41:57.208Z,1013.81
2023-01-15T14:47:04.415Z,1013.68
2023-01-15T14:52:11.691Z,1013.96
2023-01-15T14:57:18.877Z,1013.79
2023-01-15T15:02:26.380Z,1014.06
2023-01-15T15:07:33.589Z,1013.98
2023-01-15T15:12:41.303Z,1013.45
2023-01-15T15:17:48.675Z,1013.19
2023-01-15T15:22:55.841Z,1013.05
2023-01-15T15:28:03.054Z,1013.27
2023-01-15T15:33:10.240Z,1013.46
2023-01-15T15:38:17.525Z,1013.33
2023-01-15T15:43:24.861Z,1013.29
2023-01-15T15:48:32.041Z,1013.30
2023-01-15T15:53:39.248Z,1013.20
2023-01-15T15:58:46.760Z,1013.21
2023-01-15T16:03:54.278Z,1013.19
2023-01-15T16:09:01.621Z,1013.21
2023-01-15T16:14:08.799Z,1013.15
2023-01-15T16:19:16.193Z,1013.17
2023-01-15T16:24:24.320Z,1013.28
2023-01-15T16:29:31.738Z,1013.19
2023-01-15T16:34:39.342Z,1013.14
2023-01-15T16:39:46.981Z,1013.10
2023-01-15T16:44:54.329Z,1012.99
2023-01-15T16:50:01.884Z,1013.02
2023-01-15T16:55:09.401Z,1012.92
2023-01-15T17:00:17.108Z,1012.90
2023-01-15T17:05:24.948Z,1012.97
2023-01-15T17:10:32.440Z,1012.98
2023-01-15T17:15:40.099Z,1013.00
2023-01-15T17:20:47.673Z,1012.99
2023-01-15T17:25:55.297Z,1012.91
2023-01-15T17:31:02.713Z,1012.99
2023-01-15T17:36:11.076Z,1012.90
2023-01-15T17:41:18.839Z,1012.80
2023-01-15T17:46:26.786Z,1012.89
2023-01-15T17:51:34.381Z,1012.87
2023-01-15T17:56:42.096Z,1012.84
2023-01-15T18:01:49.795Z,1012.84
2023-01-15T18:06:57.058Z,1012.77
2023-01-15T18:12:04.534Z,1012.60
2023-01-15T18:17:12.165Z,1012.53
2023-01-15T18:22:20.265Z,1012.54
2023-01-15T18:27:27.683Z,1012.46
2023-01-15T18:32:35.299Z,1012.40
2023-01-15T18:37:42.733Z,1012.31
2023-01-15T18:42:50.220Z,1012.40
2023-01-15T18:47:57.591Z,1012.33
2023-01-15T18:53:05.153Z,1012.33
2023-01-15T18:58:12.876Z,1012.29
2023-01-15T19:03:20.476Z,1012.31
2023-01-15T19:08:28.088Z,1012.22
2023-01-15T19:13:35.705Z,1012.00
2023-01-15T19:18:43.414Z,1011.94
2023-01-15T19:23:51.139Z,1011.86
2023-01-15T19:28:58.506Z,1011.69
2023-01-15T19:34:31.732Z,1011.57
2023-01-15T19:39:12.857Z,1011.55
2023-01-15T19:44:20.370Z,1011.63
2023-01-15T19:49:27.976Z,1011.53
2023-01-15T19:54:35.619Z,1011.48
2023-01-15T19:59:43.305Z,1011.31
2023-01-15T20:04:50.935Z,1011.24
2023-01-15T20:09:58.550Z,1011.14
2023-01-15T20:15:06.254Z,1011.19
2023-01-15T20:20:13.666Z,1011.12
2023-01-15T20:25:20.895Z,1011.08
2023-01-15T20:30:28.385Z,1010.96
2023-01-15T20:35:35.735Z,1010.99
2023-01-15T20:40:43.200Z,1010.92
2023-01-15T20:45:50.885Z,1010.89
2023-01-15T20:50:58.447Z,1010.87
2023-01-15T20:56:06.041Z,1010.83
2023-01-15T21:01:13.503Z,1010.77
2023-01-15T21:06:20.609Z,1010.64
2023-01-15T21:11:27.866Z,1010.54
2023-01-15T21:16:35.451Z,1010.54
2023-01-15T21:21:42.997Z,1010.54
2023-01-15T21:26:51.530Z,1010.50
2023-01-15T21:31:58.891Z,1010.38
2023-01-15T21:37:06.087Z,1010.28
2023-01-15T21:42:14.038Z,1010.22
2023-01-15T21:47:21.267Z,1010.13
2023-01-15T21:52:28.446Z,1010.06
2023-01-15T21:57:35.599Z,1009.89
2023-01-15T22:02:42.797Z,1009.82
2023-01-15T22:07:49.993Z,1009.65
2023-01-15T22:12:57.201Z,1009.51
2023-01-15T22:18:04.438Z,1009.49
2023-01-15T22:23:11.710Z,1009.32
2023-01-15T22:28:18.925Z,1009.20
2023-01-15T22:33:26.097Z,1009.15
2023-01-15T22:38:33.297Z,1009.17
2023-01-15T22:43:40.607Z,1009.04
2023-01-15T22:48:47.914Z,1008.96
2023-01-15T22:53:55.232Z,1008.83
2023-01-15T22:59:02.445Z,1008.71
2023-01-15T23:04:09.684Z,1008.54
2023-01-15T23:09:16.859Z,1008.55
2023-01-15T23:14:24.061Z,1008.50
2023-01-15T23:19:31.291Z,1008.38
2023-01-15T23:24:38.472Z,1008.21
2023-01-15T23:29:45.678Z,1008.27
2023-01-15T23:34:52.898Z,1008.22
2023-01-15T23:40:00.173Z,1008.05
2023-01-15T23:45:07.329Z,1007.93
2023-01-15T23:50:14.563Z,1007.82
2023-01-15T23:55:21.724Z,1007.82
